Time;durP1;ratioP1;P1;durP2;ratioP2;P2;SDS_P1;SDS_P2;PMS_P1;PMS_P2;Temp;Humidity;BMP_temperature;BMP_pressure;BME280_temperature;BME280_humidity;BME280_pressure;Samples;Min_cycle;Max_cycle;Signal;HPM_P1;HPM_P2
2022/03/23 00:01:54;;;;;;;;;12.75;11.00;;;;;9.32;48.92;101877.03;146608;601;46010;-82
2022/03/23 00:04:47;;;;;;;;;15.00;12.25;;;;;9.37;49.55;101874.78;146615;569;46020;-82
2022/03/23 00:07:40;;;;;;;;;15.50;12.75;;;;;9.31;48.66;101858.81;146613;635;45913;-84
2022/03/23 00:10:32;;;;;;;;;13.50;12.25;;;;;9.18;47.97;101850.13;146615;663;46008;-84
2022/03/23 00:13:25;;;;;;;;;14.75;11.00;;;;;9.29;47.89;101855.22;146614;593;45912;-81
2022/03/23 00:16:18;;;;;;;;;8.00;7.75;;;;;9.27;46.03;101851.59;146617;595;45021;-84
2022/03/23 00:19:14;;;;;;;;;13.25;12.00;;;;;9.28;46.79;101848.22;146620;569;46010;-83
2022/03/23 00:22:07;;;;;;;;;10.75;7.25;;;;;9.21;46.20;101837.41;146610;591;45020;-85
2022/03/23 00:25:00;;;;;;;;;12.75;10.00;;;;;9.31;47.96;101859.69;146618;594;46010;-85
2022/03/23 00:27:52;;;;;;;;;10.50;8.50;;;;;9.25;46.43;101835.94;146614;668;46008;-85
2022/03/23 00:30:44;;;;;;;;;13.00;12.25;;;;;9.27;47.94;101829.22;146611;570;45861;-88
2022/03/23 00:33:37;;;;;;;;;11.50;9.75;;;;;9.24;47.92;101836.75;146615;619;46020;-89
2022/03/23 00:36:29;;;;;;;;;11.00;9.50;;;;;9.24;46.65;101834.16;146620;578;46010;-90
2022/03/23 00:39:22;;;;;;;;;10.00;9.50;;;;;9.22;47.00;101840.91;146622;579;46008;-75
2022/03/23 00:42:14;;;;;;;;;11.50;8.50;;;;;9.21;45.91;101839.09;146621;569;45913;-80
2022/03/23 00:45:07;;;;;;;;;15.75;11.00;;;;;9.23;46.62;101833.25;146625;579;46008;-85
2022/03/23 00:47:59;;;;;;;;;10.50;10.00;;;;;9.22;45.26;101844.41;146613;612;46016;-85
2022/03/23 00:50:51;;;;;;;;;11.00;7.50;;;;;9.20;43.87;101853.72;146611;609;46008;-84
2022/03/23 00:53:44;;;;;;;;;11.50;10.50;;;;;9.21;44.82;101842.59;146609;590;47913;-84
2022/03/23 00:56:37;;;;;;;;;13.00;13.00;;;;;9.27;45.78;101855.09;146614;582;46012;-85
2022/03/23 00:59:30;;;;;;;;;14.75;13.00;;;;;9.26;45.71;101845.53;146614;660;45913;-85
2022/03/23 01:02:22;;;;;;;;;8.00;7.75;;;;;9.26;45.62;101855.88;146613;663;46008;-82
2022/03/23 01:05:15;;;;;;;;;8.75;7.25;;;;;9.26;44.97;101855.88;146626;647;46922;-81
2022/03/23 01:08:08;;;;;;;;;10.25;9.00;;;;;9.31;45.26;101853.63;146638;599;44021;-84
2022/03/23 01:11:01;;;;;;;;;8.50;7.50;;;;;9.35;45.26;101841.03;146636;592;45912;-81
2022/03/23 01:13:53;;;;;;;;;9.25;8.00;;;;;9.38;44.44;101851.63;146639;620;44020;-83
2022/03/23 01:16:46;;;;;;;;;12.50;10.25;;;;;9.38;44.60;101840.37;146639;615;44914;-80
2022/03/23 01:19:38;;;;;;;;;10.75;9.25;;;;;9.27;44.59;101849.00;146629;613;45020;-84
2022/03/23 01:22:30;;;;;;;;;12.25;10.75;;;;;9.29;46.32;101843.16;146638;624;44016;-80
2022/03/23 01:25:23;;;;;;;;;16.00;13.75;;;;;9.21;45.38;101841.69;146637;594;45008;-80
2022/03/23 01:28:15;;;;;;;;;15.75;13.25;;;;;9.25;45.08;101817.81;146633;607;45912;-82
2022/03/23 01:31:08;;;;;;;;;16.00;11.25;;;;;9.21;44.82;101852.03;146637;651;45008;-80
2022/03/23 01:34:00;;;;;;;;;10.50;7.75;;;;;9.26;45.05;101811.88;146635;616;45912;-79
2022/03/23 01:36:51;;;;;;;;;11.00;10.25;;;;;9.34;45.77;101830.56;146636;599;45021;-80
2022/03/23 01:39:44;;;;;;;;;10.00;9.00;;;;;9.36;44.88;101855.78;146633;593;44912;-81
2022/03/23 01:42:36;;;;;;;;;9.75;9.25;;;;;9.42;45.18;101835.50;146638;732;44020;-80
2022/03/23 01:45:28;;;;;;;;;11.75;11.25;;;;;9.47;44.60;101831.59;146632;602;45913;-80
2022/03/23 01:48:20;;;;;;;;;13.25;13.25;;;;;9.54;44.60;101852.75;146630;677;45008;-80
2022/03/23 01:51:13;;;;;;;;;18.00;14.75;;;;;9.57;45.04;101838.34;146629;566;46010;-78
2022/03/23 01:54:05;;;;;;;;;14.25;10.75;;;;;9.52;44.99;101839.69;146636;577;45020;-80
2022/03/23 01:56:59;;;;;;;;;15.50;12.75;;;;;9.56;44.94;101839.09;146636;666;45010;-80
2022/03/23 01:59:51;;;;;;;;;14.25;13.50;;;;;9.55;45.93;101824.38;146636;565;45021;-81
2022/03/23 02:02:44;;;;;;;;;14.00;11.50;;;;;9.56;45.29;101820.06;146636;591;45010;-81
2022/03/23 02:05:36;;;;;;;;;14.50;13.75;;;;;9.62;45.45;101830.88;146620;597;46020;-78
2022/03/23 02:08:29;;;;;;;;;16.50;14.25;;;;;9.63;45.68;101815.47;146610;608;47010;-80
2022/03/23 02:11:21;;;;;;;;;14.75;11.75;;;;;9.65;45.34;101842.38;146617;569;45020;-79
2022/03/23 02:14:13;;;;;;;;;13.00;11.00;;;;;9.65;45.91;101842.38;146609;596;46011;-83
2022/03/23 02:17:06;;;;;;;;;14.00;13.75;;;;;9.63;46.18;101840.47;146608;594;46020;-83
2022/03/23 02:19:58;;;;;;;;;15.00;14.25;;;;;9.61;45.99;101824.81;146611;603;46010;-81
2022/03/23 02:22:50;;;;;;;;;14.75;13.00;;;;;9.55;46.32;101826.94;146612;630;47012;-82
2022/03/23 02:25:43;;;;;;;;;12.25;10.50;;;;;9.49;46.07;101831.69;146612;573;46016;-81
2022/03/23 02:28:35;;;;;;;;;13.00;11.00;;;;;9.40;45.35;101807.72;146613;573;45021;-81
2022/03/23 02:31:27;;;;;;;;;11.75;11.75;;;;;9.36;45.65;101810.88;146615;604;46010;-82
2022/03/23 02:34:20;;;;;;;;;18.50;15.25;;;;;9.56;47.28;101866.69;146614;593;45020;-83
2022/03/23 02:37:12;;;;;;;;;14.00;13.00;;;;;9.52;46.58;101860.37;146611;600;46913;-81
2022/03/23 02:40:04;;;;;;;;;12.75;11.75;;;;;9.59;46.85;101856.56;146615;579;45039;-88
2022/03/23 02:42:56;;;;;;;;;14.75;13.25;;;;;9.60;45.81;101872.22;146609;573;46017;-79
2022/03/23 02:45:48;;;;;;;;;19.00;14.75;;;;;9.65;45.88;101886.38;146608;563;46008;-85
2022/03/23 02:48:40;;;;;;;;;15.50;10.75;;;;;9.67;45.53;101869.28;146611;573;46016;-77
2022/03/23 02:51:32;;;;;;;;;13.50;12.00;;;;;9.69;45.32;101857.34;146614;614;46009;-79
2022/03/23 03:01:52;;;;;;;;;16.75;13.25;;;;;8.94;45.72;101727.63;146612;647;46016;-79
2022/03/23 03:04:44;;;;;;;;;13.75;11.75;;;;;9.74;45.04;101862.84;146616;607;45020;-78
2022/03/23 03:10:46;;;;;;;;;14.75;12.75;;;;;9.69;46.46;101877.19;146612;633;46020;-76
2022/03/23 03:13:38;;;;;;;;;18.50;16.00;;;;;9.64;46.64;101874.25;146612;618;46011;-75
2022/03/23 03:16:30;;;;;;;;;18.25;16.00;;;;;9.61;47.38;101867.94;146609;597;46008;-74
2022/03/23 03:19:22;;;;;;;;;16.00;14.00;;;;;9.58;47.37;101867.72;146615;627;46010;-83
2022/03/23 03:22:16;;;;;;;;;15.25;14.50;;;;;9.37;48.20;101829.09;146611;588;46008;-84
2022/03/23 03:25:10;;;;;;;;;22.75;19.75;;;;;9.51;47.39;101866.38;146612;605;46016;-86
2022/03/23 03:28:02;;;;;;;;;20.50;18.25;;;;;9.53;48.20;101880.31;146612;598;46021;-83
2022/03/23 03:30:54;;;;;;;;;19.25;17.75;;;;;9.54;48.07;101863.09;146610;578;46016;-85
2022/03/23 03:33:48;;;;;;;;;21.75;17.75;;;;;9.52;47.38;101860.37;146614;593;46008;-87
2022/03/23 03:36:41;;;;;;;;;20.25;19.75;;;;;9.52;47.82;101868.16;146611;596;46012;-79
2022/03/23 03:39:33;;;;;;;;;21.25;17.25;;;;;9.54;47.76;101874.34;146614;591;46020;-82
2022/03/23 03:42:26;;;;;;;;;21.75;21.00;;;;;9.57;47.74;101863.34;146604;700;47913;-76
2022/03/23 03:45:18;;;;;;;;;24.00;20.50;;;;;9.58;48.95;101850.47;146604;567;46021;-83
2022/03/23 03:48:10;;;;;;;;;21.00;19.75;;;;;9.56;48.31;101852.03;146610;566;46016;-81
2022/03/23 03:51:02;;;;;;;;;18.75;17.75;;;;;9.54;48.93;101869.19;146614;621;46021;-83
2022/03/23 03:53:55;;;;;;;;;21.50;20.75;;;;;9.52;46.85;101855.22;146610;570;46010;-82
2022/03/23 03:56:47;;;;;;;;;17.00;15.00;;;;;9.49;45.40;101870.53;146614;593;46020;-82
2022/03/23 03:59:39;;;;;;;;;22.00;19.00;;;;;9.58;47.26;101871.19;146609;576;46913;-77
2022/03/23 04:02:31;;;;;;;;;22.25;18.75;;;;;9.63;48.00;101858.59;146616;692;46008;-77
2022/03/23 04:05:23;;;;;;;;;22.50;21.75;;;;;9.64;49.19;101855.22;146605;612;47913;-78
2022/03/23 04:08:15;;;;;;;;;23.50;19.25;;;;;9.61;50.27;101866.25;146611;640;46008;-79
2022/03/23 04:11:08;;;;;;;;;21.75;20.00;;;;;9.60;49.76;101881.69;146605;570;47010;-79
2022/03/23 04:14:00;;;;;;;;;28.25;19.75;;;;;9.57;50.33;101869.41;146611;606;46009;-79
2022/03/23 04:16:52;;;;;;;;;27.25;21.00;;;;;9.55;50.35;101868.38;146611;653;46016;-79
2022/03/23 04:19:44;;;;;;;;;23.25;20.25;;;;;9.53;48.93;101871.63;146615;581;46021;-80
2022/03/23 04:22:38;;;;;;;;;25.25;22.00;;;;;9.52;49.56;101872.44;146608;609;47010;-84
2022/03/23 04:25:30;;;;;;;;;22.00;18.75;;;;;9.51;49.70;101876.72;146612;569;46020;-80
2022/03/23 04:28:22;;;;;;;;;24.00;19.00;;;;;9.52;49.53;101872.44;146610;641;46011;-84
2022/03/23 04:31:15;;;;;;;;;20.00;15.25;;;;;9.51;48.04;101881.91;146619;586;45022;-80
2022/03/23 04:34:07;;;;;;;;;17.50;16.00;;;;;9.56;48.69;101882.22;146609;590;46013;-82
2022/03/23 04:36:59;;;;;;;;;19.75;16.25;;;;;9.60;49.50;101871.31;146617;654;46020;-76
2022/03/23 04:39:51;;;;;;;;;20.50;17.00;;;;;9.61;48.83;101897.31;146611;596;46016;-83
2022/03/23 04:42:44;;;;;;;;;17.50;15.75;;;;;9.65;49.04;101873.44;146609;628;46021;-79
2022/03/23 04:45:36;;;;;;;;;22.50;17.25;;;;;9.65;49.05;101870.84;146614;570;47010;-77
2022/03/23 04:48:28;;;;;;;;;19.25;18.50;;;;;9.61;49.85;101874.00;146618;596;45024;-81
2022/03/23 04:51:21;;;;;;;;;19.50;16.25;;;;;9.60;49.14;101879.09;146613;611;45913;-80
2022/03/23 04:54:13;;;;;;;;;20.75;19.25;;;;;9.60;48.78;101877.41;146617;570;45020;-83
2022/03/23 04:57:05;;;;;;;;;17.50;14.50;;;;;9.64;46.79;101886.28;146604;594;47010;-78
2022/03/23 04:59:58;;;;;;;;;18.00;17.00;;;;;9.51;47.07;101853.41;146618;577;46020;-86
2022/03/23 05:02:51;;;;;;;;;21.50;18.00;;;;;9.65;47.67;101881.22;146608;586;46016;-78
2022/03/23 05:05:44;;;;;;;;;21.25;20.00;;;;;9.73;48.73;101896.44;146615;634;46008;-82
2022/03/23 05:08:36;;;;;;;;;21.50;18.00;;;;;9.73;48.28;101878.31;146611;610;46016;-81
2022/03/23 05:11:28;;;;;;;;;16.75;16.00;;;;;9.67;48.49;101884.81;146605;597;46020;-74
2022/03/23 05:14:21;;;;;;;;;26.25;22.25;;;;;9.68;48.40;101891.78;146611;567;46010;-80
2022/03/23 05:17:13;;;;;;;;;18.25;18.00;;;;;9.67;48.04;101902.94;146615;639;46020;-79
2022/03/23 05:20:06;;;;;;;;;22.25;19.75;;;;;9.67;48.09;101892.59;146614;569;46010;-79
2022/03/23 05:22:58;;;;;;;;;22.50;18.25;;;;;9.64;48.39;101892.38;146615;609;46020;-78
2022/03/23 05:25:51;;;;;;;;;18.00;17.50;;;;;9.59;47.67;101893.69;146605;596;47010;-78
2022/03/23 05:28:43;;;;;;;;;19.00;18.00;;;;;9.58;47.44;101901.37;146613;615;47008;-81
2022/03/23 05:31:35;;;;;;;;;20.50;19.50;;;;;9.60;46.99;101915.34;146611;610;46912;-81
2022/03/23 05:34:27;;;;;;;;;23.50;17.75;;;;;9.65;47.48;101911.37;146612;669;46021;-81
2022/03/23 05:37:20;;;;;;;;;18.50;16.25;;;;;9.69;46.33;101908.25;146611;594;46912;-81
2022/03/23 05:40:13;;;;;;;;;19.25;16.75;;;;;9.73;46.28;101918.03;146609;629;46008;-81
2022/03/23 05:43:05;;;;;;;;;19.00;18.75;;;;;9.74;46.82;101908.59;146608;606;46025;-80
2022/03/23 05:45:56;;;;;;;;;23.25;18.50;;;;;9.75;47.68;101919.06;146611;571;46008;-81
2022/03/23 05:48:49;;;;;;;;;23.75;19.50;;;;;9.73;47.75;101911.97;146613;569;47012;-80
2022/03/23 05:51:41;;;;;;;;;21.50;16.25;;;;;9.73;48.15;101914.56;146616;606;46020;-81
2022/03/23 05:54:33;;;;;;;;;27.00;22.75;;;;;9.73;49.06;101899.03;146611;621;46016;-83
2022/03/23 05:57:25;;;;;;;;;22.75;19.00;;;;;9.70;47.70;101892.81;146617;599;45021;-83
2022/03/23 06:00:19;;;;;;;;;20.75;18.50;;;;;9.69;48.01;101906.56;146612;580;46010;-82
2022/03/23 06:03:11;;;;;;;;;17.00;16.00;;;;;9.74;46.85;101924.13;146618;636;46021;-82
2022/03/23 06:06:03;;;;;;;;;18.50;15.50;;;;;9.81;47.18;101932.47;146613;583;46913;-77
2022/03/23 06:08:55;;;;;;;;;14.50;12.00;;;;;9.88;45.96;101946.78;146610;595;46008;-79
2022/03/23 06:11:47;;;;;;;;;17.75;16.50;;;;;9.98;46.57;101945.75;146613;564;46016;-83
2022/03/23 06:14:43;;;;;;;;;17.25;17.25;;;;;10.07;47.08;101955.09;146612;597;46020;-83
2022/03/23 06:17:35;;;;;;;;;21.50;18.50;;;;;10.17;46.21;101928.16;146611;569;47010;-76
2022/03/23 06:20:28;;;;;;;;;13.25;12.25;;;;;10.20;42.21;101938.75;146614;582;46027;-76
2022/03/23 06:23:20;;;;;;;;;1.00;0.00;;;;;10.20;43.40;101923.19;146612;577;46025;-87
2022/03/23 06:26:12;;;;;;;;;18.00;15.25;;;;;10.24;44.51;101930.38;146617;632;46021;-81
2022/03/23 06:29:05;;;;;;;;;19.75;19.00;;;;;10.29;45.20;101938.53;146608;629;46016;-78
2022/03/23 06:31:57;;;;;;;;;21.50;18.75;;;;;10.27;45.59;101925.44;146615;721;46020;-79
2022/03/23 06:34:49;;;;;;;;;18.25;15.50;;;;;10.22;47.24;101921.63;146610;577;47010;-76
2022/03/23 06:37:41;;;;;;;;;27.25;20.00;;;;;10.20;46.60;101933.56;146606;595;47008;-82
2022/03/23 06:40:34;;;;;;;;;21.50;19.00;;;;;10.20;46.94;101930.97;146610;578;46016;-77
2022/03/23 06:43:26;;;;;;;;;22.00;19.50;;;;;10.21;47.10;101937.03;146613;595;45020;-81
2022/03/23 06:46:18;;;;;;;;;39.50;33.25;;;;;10.21;46.63;101940.53;146609;596;46010;-78
2022/03/23 06:49:12;;;;;;;;;27.00;24.50;;;;;10.27;47.86;101935.81;146617;590;45021;-79
2022/03/23 06:52:03;;;;;;;;;25.50;25.00;;;;;10.30;48.24;101940.34;146608;659;46016;-78
2022/03/23 06:54:55;;;;;;;;;25.00;21.00;;;;;10.31;46.97;101936.94;146613;657;46008;-84
2022/03/23 06:57:47;;;;;;;;;25.00;23.00;;;;;10.37;47.85;101942.56;146610;564;46029;-74
2022/03/23 07:00:40;;;;;;;;;20.50;19.75;;;;;10.39;45.75;101952.25;146612;711;46020;-77
2022/03/23 07:03:32;;;;;;;;;25.00;20.75;;;;;10.37;46.66;101921.81;146611;591;46010;-80
2022/03/23 07:06:25;;;;;;;;;22.75;20.00;;;;;10.52;45.40;101937.56;146630;607;45008;-79
2022/03/23 07:09:32;;;;;;;;;16.75;15.75;;;;;10.58;44.71;101938.00;146636;580;45008;-78
2022/03/23 07:12:24;;;;;;;;;20.25;18.00;;;;;10.65;45.31;101932.44;146634;573;45021;-79
2022/03/23 07:15:16;;;;;;;;;22.50;20.25;;;;;10.70;45.11;101919.81;146634;599;45010;-81
2022/03/23 07:18:08;;;;;;;;;22.75;19.50;;;;;10.73;45.61;101938.19;146634;565;45020;-79
2022/03/23 07:21:02;;;;;;;;;22.50;20.00;;;;;10.72;46.80;101915.63;146628;636;45016;-79
2022/03/23 07:23:54;;;;;;;;;22.25;21.75;;;;;10.65;46.51;101916.88;146633;573;46012;-78
2022/03/23 07:26:47;;;;;;;;;18.50;17.00;;;;;10.71;46.33;101925.09;146637;637;45010;-76
2022/03/23 07:29:40;;;;;;;;;22.75;19.75;;;;;10.75;46.29;101942.69;146637;584;45020;-77
2022/03/23 07:32:32;;;;;;;;;27.50;25.00;;;;;10.76;47.06;101922.84;146635;742;46011;-78
2022/03/23 07:35:25;;;;;;;;;25.25;23.25;;;;;10.84;46.88;101938.16;146628;666;45020;-77
2022/03/23 07:38:17;;;;;;;;;25.50;25.00;;;;;10.90;46.78;101944.53;146632;569;46010;-77
2022/03/23 07:41:09;;;;;;;;;24.75;19.75;;;;;10.97;44.88;101941.59;146637;636;45020;-78
2022/03/23 07:44:01;;;;;;;;;21.25;18.25;;;;;11.02;45.07;101946.28;146634;569;45010;-78
2022/03/23 07:46:53;;;;;;;;;17.25;15.75;;;;;11.08;44.70;101928.53;146635;736;45020;-78
2022/03/23 07:49:46;;;;;;;;;18.00;18.00;;;;;11.15;44.36;101949.72;146633;637;45010;-77
2022/03/23 07:52:38;;;;;;;;;15.75;15.75;;;;;11.23;44.41;101954.63;146633;653;45020;-79
2022/03/23 07:55:31;;;;;;;;;37.25;33.00;;;;;11.26;42.16;101951.34;146635;578;45016;-76
2022/03/23 07:58:22;;;;;;;;;26.00;24.25;;;;;11.24;42.98;101976.31;146634;594;46008;-76
2022/03/23 08:01:15;;;;;;;;;19.25;18.25;;;;;11.21;41.50;101957.94;146635;569;46912;-86
2022/03/23 08:04:07;;;;;;;;;20.75;19.25;;;;;11.22;43.46;101972.72;146625;646;46020;-87
2022/03/23 08:07:00;;;;;;;;;17.25;13.75;;;;;11.22;42.34;101963.25;146610;563;47010;-88
2022/03/23 08:09:52;;;;;;;;;14.75;14.50;;;;;11.22;41.53;101958.03;146611;574;47008;-84
2022/03/23 08:12:45;;;;;;;;;20.25;17.75;;;;;11.24;41.92;101963.31;146608;597;46016;-81
2022/03/23 08:15:39;;;;;;;;;13.75;13.75;;;;;11.26;42.26;101965.25;146617;703;46025;-78
2022/03/23 08:18:32;;;;;;;;;18.75;18.00;;;;;11.33;42.45;101975.22;146612;578;46011;-80
2022/03/23 08:21:26;;;;;;;;;25.00;21.75;;;;;11.38;42.13;101965.19;146610;626;46012;-77
2022/03/23 08:24:19;;;;;;;;;18.00;16.25;;;;;11.43;42.75;101962.88;146612;592;46016;-82
2022/03/23 08:27:11;;;;;;;;;17.50;14.00;;;;;11.55;41.85;101961.09;146615;571;46008;-80
2022/03/23 08:30:03;;;;;;;;;15.50;15.25;;;;;11.64;42.33;101968.63;146609;590;46012;-79
2022/03/23 08:32:56;;;;;;;;;17.75;17.00;;;;;11.73;42.18;101974.44;146605;682;47008;-78
2022/03/23 08:35:48;;;;;;;;;20.00;17.75;;;;;11.79;39.87;101973.13;146607;586;47012;-83
2022/03/23 08:38:41;;;;;;;;;16.50;14.25;;;;;11.79;38.78;101985.22;146612;600;46020;-76
2022/03/23 08:41:33;;;;;;;;;15.50;12.25;;;;;11.77;39.50;101976.41;146611;577;46017;-76
2022/03/23 08:44:25;;;;;;;;;19.25;16.75;;;;;11.78;39.70;101973.03;146612;629;46020;-76
2022/03/23 08:47:17;;;;;;;;;18.00;17.50;;;;;11.84;40.39;101970.84;146608;596;46016;-76
2022/03/23 08:50:13;;;;;;;;;16.00;14.00;;;;;11.89;40.52;101977.25;146614;596;46020;-77
2022/03/23 08:53:06;;;;;;;;;14.50;13.00;;;;;11.99;40.50;101977.09;146611;593;46016;-77
2022/03/23 08:55:59;;;;;;;;;19.50;17.25;;;;;12.17;41.08;101968.66;146614;607;46008;-78
2022/03/23 08:58:51;;;;;;;;;27.25;26.25;;;;;12.51;41.33;101974.31;146610;588;46016;-77
2022/03/23 09:01:43;;;;;;;;;14.75;14.00;;;;;12.75;39.60;101963.66;146608;572;47008;-77
2022/03/23 09:04:35;;;;;;;;;12.75;11.75;;;;;12.81;39.16;101977.06;146610;609;46016;-76
2022/03/23 09:07:27;;;;;;;;;10.75;9.75;;;;;12.76;39.03;101957.66;146617;589;45020;-76
2022/03/23 09:10:20;;;;;;;;;15.50;15.25;;;;;12.67;39.42;101957.97;146614;608;46017;-76
2022/03/23 09:13:12;;;;;;;;;25.25;24.50;;;;;12.62;38.93;101962.00;146612;584;46020;-76
2022/03/23 09:16:04;;;;;;;;;20.25;19.25;;;;;12.57;39.00;101960.81;146610;586;46016;-76
2022/03/23 09:19:00;;;;;;;;;14.00;14.00;;;;;12.47;38.28;101970.62;146610;579;46021;-78
2022/03/23 09:21:54;;;;;;;;;15.75;13.50;;;;;12.38;38.95;101964.84;146608;595;46010;-77
2022/03/23 09:24:46;;;;;;;;;11.25;10.50;;;;;12.30;38.08;101954.75;146612;575;46008;-79
2022/03/23 09:27:43;;;;;;;;;11.75;11.00;;;;;12.25;38.50;101968.38;146613;690;46016;-76
2022/03/23 09:30:35;;;;;;;;;13.50;13.50;;;;;12.31;38.61;101970.47;146606;587;46020;-78
2022/03/23 09:33:30;;;;;;;;;11.00;8.75;;;;;12.34;37.48;101965.47;146612;578;46017;-76
2022/03/23 09:39:32;;;;;;;;;9.25;9.00;;;;;12.30;37.68;101979.06;146610;634;46017;-78
2022/03/23 09:42:26;;;;;;;;;5.50;5.25;;;;;12.29;37.34;101974.66;146623;564;46028;-77
2022/03/23 09:45:36;;;;;;;;;8.50;5.00;;;;;12.39;36.97;101956.22;146612;574;47013;-76
2022/03/23 09:48:33;;;;;;;;;10.50;9.00;;;;;12.55;36.86;101967.59;146621;573;46021;-82
2022/03/23 09:51:26;;;;;;;;;8.50;7.25;;;;;12.40;36.56;101936.34;146614;664;46016;-72
2022/03/23 09:54:18;;;;;;;;;4.50;4.50;;;;;12.55;38.03;101967.59;146619;574;46021;-78
2022/03/23 09:57:10;;;;;;;;;8.50;7.25;;;;;12.55;37.24;101970.22;146617;589;46016;-79
2022/03/23 10:00:03;;;;;;;;;10.00;8.00;;;;;12.53;38.18;101970.13;146610;582;46020;-78
2022/03/23 10:03:45;;;;;;;;;7.25;5.50;;;;;12.58;38.77;101952.19;146617;707;46010;-79
2022/03/23 10:07:23;;;;;;;;;7.25;7.25;;;;;12.89;37.32;101968.91;146637;569;45020;-78
2022/03/23 10:11:01;;;;;;;;;15.00;12.25;;;;;13.04;38.30;101962.84;146637;611;44911;-79
2022/03/23 10:14:48;;;;;;;;;4.00;4.00;;;;;12.99;35.83;101920.00;146638;569;45020;-79
2022/03/23 10:18:18;;;;;;;;;8.00;8.00;;;;;13.21;37.72;101948.22;146634;628;45017;-79
2022/03/23 10:21:11;;;;;;;;;11.25;8.50;;;;;13.36;34.34;101947.50;146637;603;45020;-78
2022/03/23 10:24:42;;;;;;;;;10.00;7.25;;;;;13.39;34.98;101960.72;146632;580;45010;-80
2022/03/23 10:27:36;;;;;;;;;17.00;14.25;;;;;13.32;34.13;101958.53;146635;584;46008;-79
2022/03/23 10:30:39;;;;;;;;;28.25;26.00;;;;;13.24;34.58;101951.00;146631;571;45016;-79
2022/03/23 10:33:31;;;;;;;;;32.75;28.50;;;;;13.30;35.59;101951.41;146628;588;46008;-78
2022/03/23 10:36:24;;;;;;;;;26.75;19.75;;;;;13.59;34.48;101953.16;146634;591;45016;-78
2022/03/23 10:39:16;;;;;;;;;30.75;27.25;;;;;14.05;34.83;101964.53;146637;586;45021;-79
2022/03/23 10:42:28;;;;;;;;;7.25;7.25;;;;;14.58;35.53;101944.88;146635;629;45016;-78
2022/03/23 10:45:23;;;;;;;;;7.25;7.25;;;;;15.05;31.14;101933.47;146633;622;45021;-79
2022/03/23 10:48:20;;;;;;;;;23.75;22.00;;;;;15.37;32.08;101936.84;146635;579;45016;-80
2022/03/23 10:51:12;;;;;;;;;7.75;6.00;;;;;15.55;30.22;101931.66;146635;581;44020;-79
2022/03/23 10:54:23;;;;;;;;;6.25;6.00;;;;;15.68;32.51;101911.44;146635;634;45912;-78
2022/03/23 10:57:16;;;;;;;;;3.00;2.25;;;;;15.86;30.13;101897.47;146637;570;45008;-79
2022/03/23 11:00:10;;;;;;;;;3.00;3.00;;;;;15.88;29.71;101893.19;146635;641;45016;-80
2022/03/23 11:03:03;;;;;;;;;4.25;3.75;;;;;15.75;27.26;101894.31;146632;640;45008;-78
2022/03/23 11:05:55;;;;;;;;;3.75;3.25;;;;;15.37;26.76;101871.50;146616;666;46012;-79
2022/03/23 11:08:48;;;;;;;;;6.00;3.75;;;;;15.35;31.23;101892.31;146618;595;46021;-78
2022/03/23 11:18:27;;;;;;;;;9.00;6.50;;;;;16.13;31.67;101888.31;146615;606;46016;-80
2022/03/23 11:21:18;;;;;;;;;4.00;4.00;;;;;16.38;31.60;101898.19;146619;622;46020;-79
2022/03/23 11:24:11;;;;;;;;;3.00;2.75;;;;;16.59;29.99;101887.81;146617;565;46016;-78
2022/03/23 11:27:03;;;;;;;;;11.25;9.00;;;;;16.68;28.94;101870.75;146621;604;45020;-78
2022/03/23 11:29:56;;;;;;;;;32.25;29.00;;;;;16.69;27.15;101880.38;146616;564;46016;-79
2022/03/23 11:32:48;;;;;;;;;6.00;6.00;;;;;16.76;29.59;101875.53;146610;646;45919;-81
2022/03/23 11:35:51;;;;;;;;;6.25;4.00;;;;;16.83;27.42;101884.56;146609;685;47913;-79
2022/03/23 11:38:44;;;;;;;;;2.50;2.50;;;;;16.58;23.82;101877.28;146623;578;46008;-80
2022/03/23 11:41:41;;;;;;;;;11.00;11.00;;;;;16.40;26.65;101873.00;146616;570;47010;-80
2022/03/23 11:44:36;;;;;;;;;2.25;2.25;;;;;16.12;25.37;101862.09;146617;621;45026;-79
2022/03/23 11:47:42;;;;;;;;;5.25;5.25;;;;;16.07;31.19;101860.97;146617;571;46010;-79
2022/03/23 11:51:18;;;;;;;;;16.00;14.25;;;;;16.22;32.73;101835.50;146620;569;46020;-80
2022/03/23 11:58:23;;;;;;;;;8.00;7.00;;;;;17.11;30.19;101852.59;146621;577;46012;-79
2022/03/23 12:01:17;;;;;;;;;11.75;8.75;;;;;17.32;29.30;101860.47;146617;608;46017;-78
2022/03/23 12:04:09;;;;;;;;;10.00;7.75;;;;;17.48;29.97;101849.78;146607;649;46020;-79
2022/03/23 12:07:06;;;;;;;;;5.25;5.25;;;;;17.66;27.71;101849.63;146618;592;46010;-80
2022/03/23 12:10:26;;;;;;;;;6.50;5.50;;;;;17.76;29.08;101833.41;146620;570;47008;-79
2022/03/23 12:13:21;;;;;;;;;12.25;11.50;;;;;17.86;29.04;101850.44;146616;612;46016;-79
2022/03/23 12:16:13;;;;;;;;;10.50;9.25;;;;;17.81;28.69;101825.75;146616;574;46021;-80
2022/03/23 12:19:06;;;;;;;;;8.00;6.00;;;;;17.99;27.84;101841.31;146618;571;47010;-79
2022/03/23 12:22:22;;;;;;;;;12.50;9.75;;;;;17.99;29.25;101841.31;146622;585;46008;-78
2022/03/23 12:25:24;;;;;;;;;5.50;4.00;;;;;17.97;28.35;101838.66;146617;653;47010;-79
2022/03/23 12:28:43;;;;;;;;;5.75;3.75;;;;;17.91;30.03;101834.88;146626;569;45020;-79
2022/03/23 12:31:44;;;;;;;;;10.00;6.00;;;;;17.83;29.48;101831.06;146616;582;46016;-80
2022/03/23 12:34:38;;;;;;;;;8.25;5.50;;;;;17.88;27.32;101835.66;146609;571;46008;-80
2022/03/23 12:37:42;;;;;;;;;4.25;4.25;;;;;17.95;29.02;101829.81;146617;737;46017;-80
2022/03/23 12:40:46;;;;;;;;;5.25;3.50;;;;;18.01;30.82;101834.41;146621;593;46012;-79
2022/03/23 12:43:46;;;;;;;;;4.75;3.75;;;;;18.09;28.11;101832.06;146618;719;46029;-79
2022/03/23 12:46:49;;;;;;;;;6.75;6.00;;;;;18.09;30.25;101825.09;146622;620;46012;-80
2022/03/23 12:59:39;;;;;;;;;5.00;4.25;;;;;18.18;29.07;101833.31;146624;613;46021;-80
2022/03/23 13:02:33;;;;;;;;;16.25;14.25;;;;;18.18;27.82;101824.53;146606;634;46912;-80
2022/03/23 13:05:25;;;;;;;;;5.50;5.00;;;;;18.19;28.72;101827.25;146610;577;47008;-80
2022/03/23 13:08:50;;;;;;;;;11.75;11.50;;;;;17.16;31.23;101644.00;146612;626;46012;-80
2022/03/23 13:11:44;;;;;;;;;30.25;28.50;;;;;18.20;26.84;101829.03;146613;569;46020;-80
2022/03/23 13:14:35;;;;;;;;;4.75;4.75;;;;;18.16;27.52;101823.56;146608;690;47010;-79
2022/03/23 13:17:28;;;;;;;;;11.50;9.50;;;;;18.13;27.93;101826.09;146619;596;46020;-79
2022/03/23 13:20:22;;;;;;;;;8.00;6.00;;;;;18.03;27.27;101829.22;146617;616;46016;-80
2022/03/23 13:23:20;;;;;;;;;9.50;8.50;;;;;17.88;28.47;101822.56;146623;628;46008;-79
2022/03/23 13:26:18;;;;;;;;;5.75;5.25;;;;;17.73;28.23;101817.56;146618;569;46010;-80
2022/03/23 13:29:15;;;;;;;;;3.75;3.75;;;;;17.63;29.08;101818.03;146619;586;46020;-80
2022/03/23 13:32:10;;;;;;;;;4.50;4.50;;;;;17.60;29.01;101815.28;146616;599;46010;-80
2022/03/23 13:35:02;;;;;;;;;6.50;5.00;;;;;17.67;29.75;101819.03;146616;649;46008;-79
2022/03/23 13:38:00;;;;;;;;;8.50;7.25;;;;;17.78;29.86;101823.00;146609;593;46017;-79
2022/03/23 13:44:03;;;;;;;;;7.00;6.50;;;;;17.73;27.51;101819.28;146614;571;46017;-79
2022/03/23 13:46:55;;;;;;;;;7.25;6.50;;;;;17.69;28.70;101807.75;146620;616;46020;-83
2022/03/23 13:49:50;;;;;;;;;5.75;5.75;;;;;17.66;29.41;101805.03;146619;645;46029;-81
2022/03/23 13:52:43;;;;;;;;;13.25;11.00;;;;;17.65;28.97;101807.59;146620;654;46021;-79
2022/03/23 13:55:35;;;;;;;;;8.00;6.50;;;;;17.69;28.92;101809.47;146610;721;46016;-74
2022/03/23 13:58:29;;;;;;;;;10.00;9.00;;;;;17.72;28.85;101800.00;146623;721;47008;-75
2022/03/23 14:01:23;;;;;;;;;8.75;7.75;;;;;17.69;27.53;101793.75;146617;599;46010;-77